Time;durP1;ratioP1;P1;durP2;ratioP2;P2;SDS_P1;SDS_P2;PMS_P1;PMS_P2;Temp;Humidity;BMP_temperature;BMP_pressure;BME280_temperature;BME280_humidity;BME280_pressure;Samples;Min_cycle;Max_cycle;Signal;HPM_P1;HPM_P2
2021/11/29 00:01:46;;;;;;;12.90;11.07;;;;;;;22.73;31.45;92441.38;5054523;28;20049;-39
2021/11/29 00:04:14;;;;;;;13.38;10.63;;;;;;;22.50;31.80;92433.41;5054407;28;20378;-40
2021/11/29 00:06:41;;;;;;;11.73;9.77;;;;;;;22.35;32.60;92430.22;5054596;28;20056;-40
2021/11/29 00:09:09;;;;;;;13.35;10.38;;;;;;;22.02;32.72;92433.78;5068603;28;20040;-40
2021/11/29 00:11:36;;;;;;;11.60;9.10;;;;;;;22.45;32.34;92439.22;5073748;28;20397;-39
2021/11/29 00:14:03;;;;;;;10.45;8.82;;;;;;;22.56;31.76;92442.44;5046245;28;20056;-39
2021/11/29 00:16:30;;;;;;;10.63;8.98;;;;;;;21.53;33.73;92433.38;5054572;28;20478;-55
2021/11/29 00:18:57;;;;;;;12.30;9.60;;;;;;;22.03;33.16;92433.38;5054812;28;20063;-54
2021/11/29 00:21:24;;;;;;;11.27;8.98;;;;;;;21.08;34.73;92440.75;5054739;28;20052;-47
2021/11/29 00:23:51;;;;;;;10.65;8.73;;;;;;;22.55;32.11;92442.84;5054128;28;20060;-46
2021/11/29 00:26:20;;;;;;;11.05;9.90;;;;;;;21.57;33.77;92435.97;5054433;28;20510;-44
2021/11/29 00:28:48;;;;;;;11.18;9.25;;;;;;;22.03;33.28;92436.06;5054796;28;20049;-56
2021/11/29 00:31:15;;;;;;;10.40;9.27;;;;;;;21.02;35.10;92437.03;5054853;28;20048;-48
2021/11/29 00:33:43;;;;;;;11.18;9.52;;;;;;;21.28;34.48;92433.69;5054155;28;20044;-46
2021/11/29 00:36:10;;;;;;;10.85;9.10;;;;;;;22.13;33.24;92440.50;5054649;28;20037;-54
2021/11/29 00:38:38;;;;;;;10.77;9.57;;;;;;;21.15;35.10;92414.84;5053962;28;20052;-41
2021/11/29 00:41:05;;;;;;;12.98;9.70;;;;;;;21.82;33.66;92421.16;5054701;28;20495;-47
2021/11/29 00:43:32;;;;;;;11.25;9.45;;;;;;;21.44;34.28;92398.56;5054026;28;20048;-53
2021/11/29 00:45:59;;;;;;;11.80;9.00;;;;;;;21.07;35.10;92402.03;5055275;28;20049;-44
2021/11/29 00:48:26;;;;;;;12.32;9.40;;;;;;;21.25;35.19;92391.97;5066911;28;20045;-42
2021/11/29 00:50:53;;;;;;;9.48;7.80;;;;;;;21.61;33.73;92402.13;5054312;28;20051;-41
2021/11/29 00:53:20;;;;;;;15.27;9.27;;;;;;;21.00;35.67;92397.56;5053883;28;20052;-44
2021/11/29 00:55:47;;;;;;;11.43;9.38;;;;;;;21.67;34.00;92392.53;5053927;28;20049;-49
2021/11/29 00:58:14;;;;;;;11.48;8.63;;;;;;;20.88;35.60;92398.88;5054324;28;20045;-44
2021/11/29 01:00:42;;;;;;;10.43;8.45;;;;;;;22.13;33.29;92408.56;5054365;28;20057;-39
2021/11/29 01:03:09;;;;;;;11.23;8.75;;;;;;;22.23;33.24;92420.19;5053857;28;20044;-40
2021/11/29 01:05:36;;;;;;;10.93;8.00;;;;;;;21.96;33.98;92417.53;5053972;28;20451;-49
2021/11/29 01:08:04;;;;;;;8.32;6.57;;;;;;;20.56;36.52;92425.03;5056078;28;20045;-54
2021/11/29 01:10:31;;;;;;;10.13;7.75;;;;;;;22.38;32.75;92404.72;5054234;28;20057;-54
2021/11/29 01:12:59;;;;;;;8.25;6.75;;;;;;;21.64;35.28;92417.28;5054067;28;20045;-57
2021/11/29 01:15:31;;;;;;;9.13;6.70;;;;;;;21.44;35.55;92398.56;5053736;28;20056;-44
2021/11/29 01:18:07;;;;;;;4.78;3.15;;;;;;;23.07;34.25;92400.41;5071521;28;20071;-63
2021/11/29 01:20:36;;;;;;;4.95;1.65;;;;;;;23.92;33.31;92389.81;5057066;28;20053;-54
2021/11/29 01:23:03;;;;;;;2.72;1.15;;;;;;;24.54;32.46;92394.03;5057719;28;20037;-40
2021/11/29 01:25:31;;;;;;;2.80;1.10;;;;;;;25.31;31.35;92372.91;5057745;28;20052;-39
2021/11/29 01:27:58;;;;;;;1.92;0.90;;;;;;;25.23;32.09;92366.25;5061437;28;20045;-40
2021/11/29 01:30:26;;;;;;;1.77;0.80;;;;;;;24.30;33.26;92360.72;5057924;28;20048;-39
2021/11/29 01:32:53;;;;;;;1.63;0.60;;;;;;;25.33;31.51;92359.84;5057214;28;20056;-48
2021/11/29 01:35:20;;;;;;;2.55;0.77;;;;;;;26.69;29.54;92352.47;5057380;28;20057;-46
2021/11/29 01:37:47;;;;;;;7.40;5.32;;;;;;;26.71;28.30;92360.06;5060735;28;20344;-53
2021/11/29 01:40:14;;;;;;;6.65;5.93;;;;;;;24.97;30.22;92376.84;5077782;28;20061;-46
2021/11/29 01:42:58;;;;;;;11.07;8.25;;;;;;;23.30;32.67;92357.66;5062733;28;20049;-48
2021/11/29 01:45:27;;;;;;;11.80;8.15;;;;;;;22.75;33.83;92359.16;5057375;28;20053;-47
2021/11/29 01:47:55;;;;;;;11.15;7.60;;;;;;;23.17;32.88;92351.47;5057145;28;20075;-56
2021/11/29 01:50:22;;;;;;;9.15;7.78;;;;;;;23.20;32.97;92350.66;5056704;28;20438;-57
2021/11/29 01:52:50;;;;;;;9.18;7.75;;;;;;;23.36;32.52;92353.34;5057644;28;20432;-60
2021/11/29 01:55:18;;;;;;;8.88;7.97;;;;;;;23.43;31.90;92341.78;5056625;28;20171;-58
2021/11/29 01:57:45;;;;;;;9.55;7.93;;;;;;;22.30;33.92;92339.47;5056929;28;20045;-54
2021/11/29 02:00:18;;;;;;;10.07;8.48;;;;;;;22.36;33.82;92354.53;5057388;28;20056;-60
2021/11/29 02:02:48;;;;;;;9.23;7.50;;;;;;;24.57;30.55;92360.41;5057446;28;20044;-53
2021/11/29 02:05:16;;;;;;;10.70;7.85;;;;;;;23.53;31.62;92340.78;5056747;28;20474;-42
2021/11/29 02:07:43;;;;;;;9.80;8.23;;;;;;;21.90;35.21;92339.38;5056197;28;20367;-44
2021/11/29 02:10:11;;;;;;;10.38;8.55;;;;;;;21.82;35.34;92343.28;5057056;28;20490;-39
2021/11/29 02:12:39;;;;;;;10.27;8.40;;;;;;;21.74;35.33;92336.59;5057097;28;20363;-40
2021/11/29 02:15:06;;;;;;;9.85;8.50;;;;;;;22.02;34.94;92320.16;5055655;28;20087;-38
2021/11/29 02:17:34;;;;;;;11.07;8.63;;;;;;;22.35;34.09;92315.03;5068224;28;20044;-40
2021/11/29 02:20:02;;;;;;;12.05;9.48;;;;;;;22.69;33.50;92312.84;5071570;28;20056;-39
2021/11/29 02:22:29;;;;;;;11.15;8.90;;;;;;;21.76;35.33;92297.03;5056859;28;20367;-39
2021/11/29 02:24:57;;;;;;;12.85;8.68;;;;;;;21.48;36.37;92303.56;5055692;28;20068;-39
2021/11/29 02:27:24;;;;;;;9.90;8.88;;;;;;;22.30;34.43;92318.16;5056387;28;20041;-41
2021/11/29 02:29:52;;;;;;;14.18;9.88;;;;;;;22.33;33.88;92318.09;5056564;28;20056;-39
2021/11/29 02:32:20;;;;;;;12.70;9.77;;;;;;;22.68;33.59;92332.66;5056111;28;20455;-39
2021/11/29 02:34:47;;;;;;;10.88;9.57;;;;;;;21.86;34.79;92328.03;5055977;28;20048;-40
2021/11/29 02:37:14;;;;;;;11.75;10.55;;;;;;;21.76;35.74;92323.63;5056175;28;20355;-40
2021/11/29 02:39:42;;;;;;;12.27;9.82;;;;;;;22.10;34.58;92310.16;5057232;28;20066;-40
2021/11/29 02:42:12;;;;;;;12.80;10.77;;;;;;;21.74;35.39;92305.44;5056438;28;20048;-41
2021/11/29 02:44:40;;;;;;;11.95;10.55;;;;;;;21.74;35.29;92312.66;5055971;28;20041;-39
2021/11/29 02:47:08;;;;;;;10.45;9.35;;;;;;;22.78;33.45;92315.72;5063066;28;20075;-39
2021/11/29 02:49:35;;;;;;;10.40;9.13;;;;;;;22.51;33.86;92307.13;5076272;28;20048;-39
2021/11/29 02:52:09;;;;;;;10.25;8.75;;;;;;;21.69;35.40;92295.25;5076333;28;20063;-40
2021/11/29 02:54:39;;;;;;;11.68;10.02;;;;;;;21.80;35.57;92295.06;5075797;28;20059;-40
2021/11/29 02:57:12;;;;;;;11.38;8.95;;;;;;;22.93;32.95;92296.81;5074144;28;20056;-47
2021/11/29 02:59:41;;;;;;;10.98;8.85;;;;;;;22.67;33.88;92309.09;5052620;28;20049;-39
2021/11/29 03:02:11;;;;;;;10.88;9.15;;;;;;;21.98;35.31;92302.75;5050037;28;20053;-61
2021/11/29 03:04:39;;;;;;;10.57;9.48;;;;;;;21.24;36.42;92292.16;5051098;28;20165;-40
2021/11/29 03:07:07;;;;;;;10.38;9.13;;;;;;;22.37;34.61;92307.38;5050619;28;20065;-40
2021/11/29 03:09:35;;;;;;;9.05;8.15;;;;;;;22.24;34.61;92309.16;5067971;28;20064;-40
2021/11/29 03:12:03;;;;;;;11.60;8.43;;;;;;;21.47;36.51;92329.41;5071096;28;20055;-39
2021/11/29 03:14:30;;;;;;;9.98;7.30;;;;;;;21.81;35.45;92309.88;5056211;28;20047;-41
2021/11/29 03:16:58;;;;;;;6.47;5.05;;;;;;;21.54;35.92;92294.72;5055467;28;20052;-41
2021/11/29 03:19:30;;;;;;;6.93;5.38;;;;;;;21.84;35.24;92301.06;5055963;28;20052;-42
2021/11/29 03:21:58;;;;;;;2.80;2.10;;;;;;;24.93;29.09;92285.34;5055824;28;20064;-48
2021/11/29 03:24:25;;;;;;;4.97;2.95;;;;;;;25.95;27.25;92266.59;5068611;28;20350;-43
2021/11/29 03:26:52;;;;;;;3.45;2.72;;;;;;;26.11;27.46;92285.16;5071003;28;20414;-49
2021/11/29 03:29:20;;;;;;;4.18;1.60;;;;;;;26.27;26.65;92284.97;5058905;28;20059;-40
2021/11/29 03:31:51;;;;;;;1.67;1.33;;;;;;;26.59;26.87;92291.22;5065697;28;20052;-45
2021/11/29 03:34:19;;;;;;;1.33;1.00;;;;;;;25.34;29.04;92284.53;5054337;28;20048;-44
2021/11/29 03:36:48;;;;;;;1.55;0.73;;;;;;;24.92;29.68;92289.19;5055586;28;20375;-49
2021/11/29 03:39:20;;;;;;;5.50;1.20;;;;;;;23.76;31.93;92273.22;5054187;28;20080;-40
2021/11/29 03:41:49;;;;;;;1.65;0.70;;;;;;;24.35;30.87;92274.00;5055075;28;20044;-40
2021/11/29 03:44:16;;;;;;;1.70;0.63;;;;;;;24.02;31.26;92292.00;5054140;28;20045;-39
2021/11/29 03:46:44;;;;;;;1.58;0.60;;;;;;;24.31;30.88;92279.44;5055299;28;20059;-40
2021/11/29 03:49:12;;;;;;;1.00;0.55;;;;;;;25.89;27.92;92303.09;5055717;28;20045;-42
2021/11/29 03:51:39;;;;;;;1.85;0.80;;;;;;;25.56;28.50;92302.59;5055333;28;20056;-43
2021/11/29 03:54:07;;;;;;;1.75;0.90;;;;;;;25.45;28.56;92292.97;5055106;28;20041;-40
2021/11/29 03:56:34;;;;;;;2.25;0.75;;;;;;;24.00;31.27;92308.44;5055618;28;20053;-57
2021/11/29 03:59:02;;;;;;;1.17;0.60;;;;;;;25.36;28.88;92290.22;5054476;28;20040;-40
2021/11/29 04:01:30;;;;;;;1.23;0.60;;;;;;;24.88;29.09;92293.91;5063772;28;20064;-40
2021/11/29 04:03:57;;;;;;;1.35;0.40;;;;;;;24.79;29.18;92307.88;5074461;28;20041;-41
2021/11/29 04:06:24;;;;;;;1.13;0.60;;;;;;;24.87;28.43;92313.78;5075151;28;20055;-54
2021/11/29 04:08:51;;;;;;;0.63;0.30;;;;;;;24.54;28.38;92297.16;5069052;28;20070;-40
2021/11/29 04:11:19;;;;;;;0.80;0.40;;;;;;;24.85;28.06;92294.75;5054552;28;20049;-40
2021/11/29 04:13:47;;;;;;;1.15;0.50;;;;;;;25.06;27.71;92278.13;5054491;28;20064;-40
2021/11/29 04:16:15;;;;;;;1.42;0.70;;;;;;;25.34;27.40;92273.84;5054746;28;20053;-57
2021/11/29 04:18:43;;;;;;;1.35;0.50;;;;;;;25.50;27.67;92246.22;5037438;28;20045;-44
2021/11/29 04:21:11;;;;;;;1.30;0.60;;;;;;;25.98;26.44;92241.63;5053638;28;20052;-40
2021/11/29 04:23:39;;;;;;;3.92;0.77;;;;;;;25.92;27.06;92227.31;5054385;28;20351;-45
2021/11/29 04:26:06;;;;;;;2.35;1.38;;;;;;;24.95;28.87;92226.88;5054682;28;20052;-44
2021/11/29 04:28:33;;;;;;;1.65;1.00;;;;;;;25.18;28.37;92239.19;5054590;28;20047;-61
2021/11/29 04:31:01;;;;;;;1.20;0.85;;;;;;;24.40;29.16;92236.84;5058435;28;20047;-40
2021/11/29 04:33:28;;;;;;;2.17;1.40;;;;;;;25.61;27.13;92227.91;5074328;28;20048;-46
2021/11/29 04:35:55;;;;;;;1.92;1.15;;;;;;;26.03;25.86;92238.41;5074363;28;20056;-65
2021/11/29 04:38:22;;;;;;;1.40;1.00;;;;;;;26.03;25.77;92233.06;5059151;28;20045;-51
2021/11/29 04:40:49;;;;;;;1.30;0.70;;;;;;;25.41;26.65;92240.78;5054240;28;20056;-40
2021/11/29 04:43:16;;;;;;;1.83;0.65;;;;;;;24.90;27.54;92238.84;5054656;28;20049;-42
2021/11/29 04:45:44;;;;;;;0.98;0.60;;;;;;;23.78;29.65;92254.88;5054305;28;20375;-50
2021/11/29 04:48:11;;;;;;;1.02;0.60;;;;;;;23.43;30.33;92255.72;5054453;28;20051;-41
2021/11/29 04:50:38;;;;;;;1.20;0.57;;;;;;;23.02;31.05;92254.34;5036768;28;20049;-40
2021/11/29 04:53:06;;;;;;;0.52;0.38;;;;;;;23.54;29.87;92256.19;5074246;28;20056;-47
2021/11/29 04:55:33;;;;;;;1.17;0.70;;;;;;;23.77;29.39;92264.03;5077399;28;20375;-40
2021/11/29 04:58:00;;;;;;;1.38;0.70;;;;;;;23.32;30.01;92262.03;5077498;28;20063;-56
2021/11/29 05:00:28;;;;;;;0.98;0.50;;;;;;;23.97;29.29;92278.00;5078202;28;20359;-39
2021/11/29 05:02:55;;;;;;;0.95;0.38;;;;;;;24.23;28.32;92272.78;5076863;28;20048;-40
2021/11/29 05:05:22;;;;;;;0.90;0.40;;;;;;;24.49;28.02;92263.69;5074299;28;20071;-40
2021/11/29 05:07:49;;;;;;;1.00;0.50;;;;;;;24.94;27.28;92257.44;5057405;28;20041;-40
2021/11/29 05:10:16;;;;;;;0.82;0.50;;;;;;;24.18;28.16;92278.63;5058183;28;20064;-40
2021/11/29 05:12:43;;;;;;;1.33;0.68;;;;;;;24.16;28.10;92284.38;5057484;28;20460;-41
2021/11/29 05:15:10;;;;;;;1.40;0.93;;;;;;;24.16;28.29;92288.97;5060061;28;20060;-40
2021/11/29 05:17:38;;;;;;;3.28;1.90;;;;;;;23.54;29.79;92299.63;5075657;23;20052;-40
2021/11/29 05:20:08;;;;;;;2.00;1.20;;;;;;;23.28;29.98;92301.34;5077992;28;20044;-49
2021/11/29 05:22:35;;;;;;;1.80;1.40;;;;;;;23.96;28.88;92305.13;5058822;28;20044;-44
2021/11/29 05:25:02;;;;;;;1.55;1.10;;;;;;;24.20;28.04;92300.28;5068753;28;20041;-41
2021/11/29 05:27:29;;;;;;;2.25;1.13;;;;;;;24.35;27.76;92292.69;5064560;28;20052;-40
2021/11/29 05:29:57;;;;;;;1.65;1.10;;;;;;;24.66;27.80;92301.75;5067692;28;20048;-48
2021/11/29 05:32:24;;;;;;;1.75;1.10;;;;;;;23.96;28.47;92303.19;5056713;28;20060;-46
2021/11/29 05:34:51;;;;;;;1.98;1.20;;;;;;;23.74;29.10;92306.81;5075512;28;20049;-47
2021/11/29 05:37:19;;;;;;;1.85;1.35;;;;;;;23.71;28.96;92313.72;5077113;28;20390;-52
2021/11/29 05:39:46;;;;;;;1.30;0.80;;;;;;;23.62;29.41;92313.56;5069068;28;20052;-48
2021/11/29 05:42:13;;;;;;;3.63;0.80;;;;;;;23.80;29.04;92316.56;5057129;28;20041;-49
2021/11/29 05:44:40;;;;;;;1.77;0.80;;;;;;;23.49;29.16;92315.38;5057654;28;20048;-50
2021/11/29 05:47:07;;;;;;;1.15;0.70;;;;;;;24.40;27.39;92313.53;5066052;28;20060;-50
2021/11/29 05:49:34;;;;;;;1.10;0.65;;;;;;;24.34;27.74;92310.63;5057520;28;20051;-54
2021/11/29 05:52:01;;;;;;;1.17;0.60;;;;;;;24.41;27.60;92307.78;5057311;28;20052;-50
2021/11/29 05:54:29;;;;;;;0.90;0.60;;;;;;;24.16;28.07;92296.97;5057385;28;20049;-63
2021/11/29 05:56:56;;;;;;;1.45;0.80;;;;;;;23.91;28.79;92300.28;5057119;28;20449;-61
2021/11/29 05:59:23;;;;;;;1.88;1.10;;;;;;;23.51;29.33;92299.69;5074484;28;20044;-60
2021/11/29 06:01:50;;;;;;;1.65;1.00;;;;;;;23.75;28.72;92300.31;5076857;28;20078;-61
2021/11/29 06:04:18;;;;;;;1.35;0.93;;;;;;;23.81;28.78;92294.03;5077210;28;20044;-65
2021/11/29 06:06:45;;;;;;;1.75;0.85;;;;;;;23.10;29.44;92300.97;5072805;28;20045;-66
2021/11/29 06:09:12;;;;;;;2.20;1.30;;;;;;;24.20;27.52;92311.75;5073312;28;20055;-66
2021/11/29 06:11:39;;;;;;;2.35;1.70;;;;;;;24.85;26.92;92311.53;5068447;28;20044;-66
2021/11/29 06:14:07;;;;;;;2.05;1.35;;;;;;;25.02;27.07;92314.91;5074029;28;20056;-58
2021/11/29 06:16:34;;;;;;;1.92;1.02;;;;;;;23.93;28.92;92312.03;5075840;28;20052;-62
2021/11/29 06:19:01;;;;;;;1.75;1.17;;;;;;;23.02;29.59;92307.63;5061996;28;20052;-66
2021/11/29 06:21:29;;;;;;;2.33;1.75;;;;;;;22.74;31.38;92312.38;5063713;28;20047;-65
2021/11/29 06:23:56;;;;;;;3.30;1.90;;;;;;;22.19;31.31;92314.97;5057036;28;20044;-55
2021/11/29 06:26:23;;;;;;;3.25;2.20;;;;;;;22.87;30.06;92311.75;5072049;28;20044;-61
2021/11/29 06:28:50;;;;;;;2.22;1.63;;;;;;;23.96;28.13;92319.22;5064672;28;20052;-59
2021/11/29 06:31:17;;;;;;;3.80;1.42;;;;;;;23.99;28.18;92310.38;5064496;28;20052;-56
2021/11/29 06:33:45;;;;;;;1.77;1.30;;;;;;;23.70;28.61;92317.56;5076510;28;20048;-56
2021/11/29 06:36:13;;;;;;;1.50;1.10;;;;;;;23.46;28.83;92324.19;5076216;28;20052;-59
2021/11/29 06:38:41;;;;;;;2.58;1.90;;;;;;;23.59;28.65;92333.81;5041407;28;20045;-57
2021/11/29 06:41:09;;;;;;;2.60;1.88;;;;;;;23.55;29.03;92330.44;5062646;28;20040;-60
2021/11/29 06:43:36;;;;;;;2.90;1.40;;;;;;;22.75;30.64;92335.19;5058667;28;20055;-56
2021/11/29 06:46:04;;;;;;;3.08;1.70;;;;;;;22.56;30.52;92340.50;5069899;28;20045;-57
2021/11/29 06:48:31;;;;;;;2.90;1.95;;;;;;;23.58;29.66;92358.22;5076720;28;20041;-55
2021/11/29 06:50:58;;;;;;;3.72;1.95;;;;;;;24.26;27.90;92357.38;5076081;28;20048;-57
2021/11/29 06:53:25;;;;;;;1.70;1.40;;;;;;;23.98;28.59;92366.81;5056324;28;20049;-58
2021/11/29 06:55:56;;;;;;;3.28;1.42;;;;;;;23.55;28.86;92364.38;5066123;28;20053;-54
2021/11/29 06:58:23;;;;;;;2.05;1.30;;;;;;;23.58;29.28;92382.22;5076235;28;20052;-56
2021/11/29 07:00:51;;;;;;;1.60;1.23;;;;;;;23.77;28.06;92376.06;5075846;28;20044;-56
2021/11/29 07:03:18;;;;;;;3.22;1.75;;;;;;;25.10;26.05;92364.31;5072180;28;20581;-55
2021/11/29 07:05:46;;;;;;;3.53;2.70;;;;;;;24.34;27.22;92369.38;5064548;28;20041;-58
2021/11/29 07:08:13;;;;;;;6.28;3.85;;;;;;;25.37;25.93;92392.56;5076058;28;20048;-56
2021/11/29 07:10:40;;;;;;;7.50;3.30;;;;;;;24.85;26.80;92380.25;5075058;28;20044;-55
2021/11/29 07:13:12;;;;;;;7.55;2.97;;;;;;;24.74;27.25;92395.84;5075458;28;20056;-59
2021/11/29 07:15:39;;;;;;;8.93;7.80;;;;;;;25.06;26.95;92405.69;5066067;28;20060;-55
2021/11/29 07:18:07;;;;;;;11.80;7.75;;;;;;;24.32;27.96;92403.75;5075520;28;20489;-66
2021/11/29 07:20:35;;;;;;;5.82;4.32;;;;;;;23.64;28.91;92405.31;5065532;28;20049;-65
2021/11/29 07:23:03;;;;;;;8.07;5.72;;;;;;;23.49;30.42;92403.34;5076146;28;20049;-66
2021/11/29 07:25:30;;;;;;;6.45;4.13;;;;;;;24.33;28.40;92415.94;5066438;28;20044;-66
2021/11/29 07:27:57;;;;;;;11.57;7.25;;;;;;;22.92;31.63;92389.28;5075627;28;20048;-66
2021/11/29 07:30:25;;;;;;;14.73;8.07;;;;;;;23.01;31.43;92381.50;5074701;28;20041;-66
2021/11/29 07:32:54;;;;;;;8.68;5.70;;;;;;;22.98;31.39;92394.88;5074620;28;20040;-66
2021/11/29 07:35:26;;;;;;;8.20;5.82;;;;;;;23.21;32.00;92392.13;5075467;28;20053;-66
2021/11/29 07:37:54;;;;;;;9.02;5.63;;;;;;;22.94;32.80;92404.88;5075683;28;20044;-57
2021/11/29 07:40:27;;;;;;;7.47;5.63;;;;;;;22.58;32.90;92413.47;5075740;28;20044;-65
2021/11/29 07:42:56;;;;;;;9.40;5.55;;;;;;;22.27;34.31;92406.81;5075423;28;20051;-65
2021/11/29 07:45:24;;;;;;;8.60;6.60;;;;;;;22.29;34.11;92410.56;5066082;28;20055;-62
2021/11/29 07:47:51;;;;;;;10.50;7.70;;;;;;;22.75;33.68;92423.06;5074639;28;20051;-65
2021/11/29 07:50:19;;;;;;;7.82;6.82;;;;;;;22.97;33.29;92428.03;5074586;28;20051;-61
2021/11/29 07:52:47;;;;;;;15.50;12.02;;;;;;;22.83;33.09;92422.97;5057356;28;20052;-58
2021/11/29 07:55:17;;;;;;;14.57;11.80;;;;;;;22.12;34.41;92423.03;5060763;28;20063;-64
2021/11/29 07:57:45;;;;;;;14.90;12.23;;;;;;;22.32;34.21;92433.72;5054942;28;20455;-64
2021/11/29 08:00:20;;;;;;;15.68;12.88;;;;;;;23.74;31.76;92440.19;5055047;28;20049;-55
2021/11/29 08:02:50;;;;;;;14.38;12.15;;;;;;;24.67;29.91;92430.72;5063506;28;20051;-54
2021/11/29 08:05:20;;;;;;;15.32;13.15;;;;;;;22.74;33.03;92421.56;5061284;28;20040;-58
2021/11/29 08:07:51;;;;;;;15.43;12.75;;;;;;;22.83;33.45;92434.38;5054839;28;20045;-48
2021/11/29 08:10:19;;;;;;;16.65;13.90;;;;;;;21.83;35.73;92419.25;5054892;28;20052;-58
2021/11/29 08:12:47;;;;;;;4.03;2.80;;;;;;;20.77;34.48;92424.78;5060915;28;20334;-66
2021/11/29 08:15:14;;;;;;;2.67;1.55;;;;;;;21.58;32.40;92424.19;5060718;28;20056;-63
2021/11/29 08:17:42;;;;;;;1.85;0.82;;;;;;;20.69;33.78;92439.28;5073907;28;20047;-59
2021/11/29 08:20:10;;;;;;;2.88;0.95;;;;;;;20.49;34.41;92486.13;5053517;28;20045;-55
2021/11/29 08:22:37;;;;;;;3.45;1.38;;;;;;;19.53;35.17;92482.25;5059767;28;20048;-57
2021/11/29 08:25:06;;;;;;;2.47;1.17;;;;;;;19.81;34.25;92507.81;5059266;28;20048;-55
2021/11/29 08:27:33;;;;;;;3.38;1.77;;;;;;;18.26;37.03;92536.97;5062270;28;20051;-58
2021/11/29 08:30:06;;;;;;;2.28;1.25;;;;;;;18.23;36.51;92564.16;5053914;28;20051;-64
2021/11/29 08:32:33;;;;;;;;;;;;;;;18.44;35.55;92558.88;5069408;28;20045;-56
2021/11/29 08:35:00;;;;;;;4.20;0.80;;;;;;;17.44;36.45;92586.97;5066451;28;19917;-66
2021/11/29 08:37:27;;;;;;;2.35;0.80;;;;;;;16.68;37.60;92591.44;5068527;28;20368;-62
2021/11/29 08:39:54;;;;;;;2.38;0.90;;;;;;;17.75;35.83;92604.09;5054417;28;20045;-66
2021/11/29 08:42:21;;;;;;;3.58;1.80;;;;;;;17.47;36.25;92598.69;5066957;28;20457;-63
2021/11/29 08:44:49;;;;;;;2.15;1.30;;;;;;;17.29;37.06;92603.13;5074049;28;20051;-61
2021/11/29 08:47:16;;;;;;;2.78;1.08;;;;;;;16.96;36.93;92607.47;5073675;28;20048;-61
2021/11/29 08:49:44;;;;;;;1.30;0.60;;;;;;;16.67;37.36;92621.59;5071839;28;20040;-56
2021/11/29 08:52:12;;;;;;;1.55;0.70;;;;;;;16.76;36.98;92632.56;5064967;28;20045;-62
2021/11/29 08:54:40;;;;;;;1.58;0.73;;;;;;;16.86;36.62;92640.56;5074131;28;20040;-65
2021/11/29 08:57:08;;;;;;;1.85;0.90;;;;;;;17.78;34.42;92648.28;5074242;28;20055;-65
2021/11/29 08:59:35;;;;;;;1.58;0.80;;;;;;;16.94;35.80;92659.88;5056528;28;20047;-65
2021/11/29 09:02:03;;;;;;;2.28;0.80;;;;;;;17.60;34.80;92665.91;5072006;28;20052;-66
2021/11/29 09:04:30;;;;;;;1.00;0.50;;;;;;;17.47;35.17;92667.38;5054346;28;20045;-65
2021/11/29 09:06:58;;;;;;;1.83;1.10;;;;;;;17.10;35.15;92681.44;5073152;28;20469;-64
2021/11/29 09:09:25;;;;;;;1.88;0.80;;;;;;;17.21;35.16;92686.81;5073471;28;20059;-64
2021/11/29 09:11:52;;;;;;;2.45;1.10;;;;;;;17.11;35.76;92713.91;5073837;28;20051;-65
2021/11/29 09:14:19;;;;;;;1.50;1.00;;;;;;;17.82;33.96;92704.53;5074114;28;20052;-65
2021/11/29 09:16:46;;;;;;;2.60;1.00;;;;;;;16.42;36.54;92706.50;5073092;28;20052;-66
2021/11/29 09:19:13;;;;;;;3.55;1.25;;;;;;;16.87;35.65;92688.81;5074167;28;20386;-56
2021/11/29 09:21:40;;;;;;;3.17;1.00;;;;;;;16.83;36.10;92701.22;5073707;28;20055;-56
2021/11/29 09:24:07;;;;;;;3.63;1.40;;;;;;;16.82;36.28;92702.34;5063762;28;20048;-49
2021/11/29 09:26:35;;;;;;;1.25;0.95;;;;;;;17.98;33.49;92722.00;5068923;28;20044;-57
2021/11/29 09:29:02;;;;;;;1.98;1.40;;;;;;;18.93;31.61;92723.38;5055496;28;20075;-58
2021/11/29 09:31:29;;;;;;;2.85;2.15;;;;;;;18.61;32.14;92715.38;5057637;28;20487;-59
2021/11/29 09:33:56;;;;;;;2.58;1.52;;;;;;;18.46;32.97;92696.81;5073837;28;20059;-60
2021/11/29 09:36:23;;;;;;;2.78;2.00;;;;;;;18.10;33.66;92687.28;5073498;28;20048;-56
2021/11/29 09:38:50;;;;;;;3.70;2.10;;;;;;;18.23;33.83;92701.69;5073980;28;20052;-61
2021/11/29 09:41:21;;;;;;;3.50;2.15;;;;;;;17.84;34.42;92712.88;5063693;28;20053;-62
2021/11/29 09:43:48;;;;;;;4.15;2.92;;;;;;;18.73;32.31;92709.75;5077563;28;20447;-61
2021/11/29 09:46:15;;;;;;;3.80;3.10;;;;;;;19.21;31.12;92704.09;5076716;28;20044;-65
2021/11/29 09:48:42;;;;;;;4.78;3.33;;;;;;;18.73;32.16;92710.50;5064118;28;20053;-60
2021/11/29 09:51:10;;;;;;;6.18;4.40;;;;;;;18.03;33.72;92700.47;5057758;28;20451;-56
2021/11/29 09:53:38;;;;;;;5.18;4.32;;;;;;;17.87;34.82;92706.84;5070367;28;20053;-67
2021/11/29 09:56:05;;;;;;;3.30;2.85;;;;;;;17.30;35.73;92710.25;5067371;28;20048;-64
2021/11/29 09:58:33;;;;;;;3.92;2.42;;;;;;;17.07;36.39;92713.88;5057292;28;20063;-60
2021/11/29 10:01:01;;;;;;;3.67;2.40;;;;;;;17.43;35.40;92690.34;5057433;28;20045;-57
2021/11/29 10:03:28;;;;;;;3.05;2.08;;;;;;;17.24;35.48;92715.13;5075917;28;20087;-59
2021/11/29 10:05:56;;;;;;;2.60;1.83;;;;;;;17.43;35.39;92696.38;5076624;28;20051;-60
2021/11/29 10:08:34;;;;;;;2.00;1.15;;;;;;;17.29;35.25;92703.47;5076590;28;20059;-54
2021/11/29 10:11:06;;;;;;;2.30;1.60;;;;;;;17.15;35.86;92704.88;5077301;28;20362;-65
2021/11/29 10:13:53;;;;;;;2.00;1.10;;;;;;;17.12;35.79;92704.84;5068098;28;20348;-64
2021/11/29 10:16:37;;;;;;;3.15;1.77;;;;;;;17.07;35.75;92713.88;5067957;28;20064;-65
2021/11/29 10:19:08;;;;;;;2.75;1.60;;;;;;;16.97;35.86;92698.72;5077055;28;20055;-57
2021/11/29 10:21:35;;;;;;;3.75;1.70;;;;;;;16.73;35.75;92688.72;5076840;28;20048;-59
2021/11/29 10:24:02;;;;;;;4.53;2.15;;;;;;;16.35;37.04;92674.78;5076969;28;20056;-54
2021/11/29 10:26:35;;;;;;;2.58;1.60;;;;;;;17.45;34.75;92685.47;5076664;28;20044;-56
2021/11/29 10:29:08;;;;;;;4.97;2.25;;;;;;;16.60;36.58;92694.22;5076956;28;20040;-65
2021/11/29 10:31:43;;;;;;;3.17;2.08;;;;;;;15.93;36.85;92681.13;5075518;28;20057;-60
2021/11/29 10:34:36;;;;;;;3.60;1.80;;;;;;;16.11;36.29;92670.00;5076847;28;20051;-65
2021/11/29 10:37:09;;;;;;;3.72;2.00;;;;;;;15.93;36.42;92665.31;5071782;28;20374;-63
2021/11/29 10:39:40;;;;;;;2.00;1.35;;;;;;;16.61;35.33;92669.34;5076805;28;20447;-61
2021/11/29 10:42:12;;;;;;;1.55;0.88;;;;;;;16.95;35.15;92670.06;5076341;28;20366;-65
2021/11/29 10:44:41;;;;;;;31.92;25.08;;;;;;;15.96;36.30;92648.78;5076615;28;20048;-58
2021/11/29 10:47:12;;;;;;;3.15;1.80;;;;;;;16.59;36.11;92644.47;5075438;28;20055;-61
2021/11/29 10:49:42;;;;;;;1.83;1.23;;;;;;;16.74;35.54;92642.75;5076398;28;20040;-59
2021/11/29 10:52:11;;;;;;;1.80;1.38;;;;;;;17.32;34.94;92661.22;5073359;28;20382;-56
2021/11/29 10:54:41;;;;;;;2.40;1.45;;;;;;;17.37;34.86;92652.94;5076338;28;20044;-50
2021/11/29 10:57:12;;;;;;;3.22;1.90;;;;;;;17.51;34.50;92662.84;5075879;28;20052;-55
2021/11/29 10:59:42;;;;;;;4.10;3.00;;;;;;;18.30;32.23;92664.69;5064436;28;20044;-63
2021/11/29 11:02:24;;;;;;;5.30;3.72;;;;;;;19.08;30.88;92653.41;5059113;28;20048;-56
2021/11/29 11:05:17;;;;;;;5.63;3.35;;;;;;;18.40;31.85;92648.06;5059088;28;20048;-61
2021/11/29 11:07:45;;;;;;;6.53;5.65;;;;;;;18.72;32.02;92664.00;5066717;28;20049;-62
2021/11/29 11:10:14;;;;;;;10.75;8.48;;;;;;;18.91;31.57;92662.88;5056409;28;20041;-56
2021/11/29 11:12:42;;;;;;;10.45;8.77;;;;;;;18.84;32.23;92670.06;5056406;28;20048;-64
2021/11/29 11:15:17;;;;;;;11.35;9.13;;;;;;;18.61;31.90;92662.44;5055982;28;20048;-59
2021/11/29 11:17:54;;;;;;;16.20;13.25;;;;;;;18.91;31.35;92665.50;5075419;28;20470;-59
2021/11/29 11:20:22;;;;;;;17.13;14.52;;;;;;;18.75;32.17;92655.31;5076236;28;20394;-62
2021/11/29 11:22:52;;;;;;;14.38;11.90;;;;;;;17.98;34.15;92650.63;5076095;28;20044;-58
2021/11/29 11:25:25;;;;;;;8.13;6.53;;;;;;;17.55;35.06;92642.47;5058184;28;20044;-54
2021/11/29 11:27:56;;;;;;;6.70;5.65;;;;;;;17.65;35.61;92643.66;5063237;28;20478;-59
2021/11/29 11:30:24;;;;;;;6.43;4.93;;;;;;;17.81;34.68;92644.88;5055387;28;20052;-58
2021/11/29 11:33:00;;;;;;;4.95;3.83;;;;;;;17.57;35.04;92629.66;5055276;28;20060;-60
2021/11/29 11:35:31;;;;;;;3.35;1.85;;;;;;;17.19;34.69;92636.28;5057026;28;20443;-61
2021/11/29 11:38:02;;;;;;;3.15;1.40;;;;;;;17.04;35.88;92637.28;5075089;28;20052;-58